Terminal Aerodrome Forecast
Issued by NWS

Home | Current Version | Previous Version | Text Only | Print | Product List | Glossary On
Versions: 1 2 3 4 5 6 7 8 9 10 11 12 13 14 15 16 17 18 19 20
107
FTUS46 KSEW 181410 AAB
TAFBLI
TAF AMD
KBLI 181410Z 1814/1912 15010KT P6SM VCSH SCT022 OVC070
      TEMPO 1814/1816 -SHRA
     FM181600 15009KT P6SM BKN060 OVC100
     FM190400 16012G19KT P6SM OVC060
     FM191000 16014G22KT P6SM -RA OVC040=

USA.gov is the U.S. government's official web portal to all federal, state and local government web resources and services.